createdAt,value
2019-03-23T00:02:00.602Z,45.60
2019-03-23T00:04:27.233Z,48.13
2019-03-23T00:06:53.795Z,50.10
2019-03-23T00:09:21.160Z,47.53
2019-03-23T00:11:47.902Z,55.50
2019-03-23T00:14:14.536Z,53.13
2019-03-23T00:16:41.366Z,48.73
2019-03-23T00:19:08.114Z,49.03
2019-03-23T00:21:34.692Z,43.83
2019-03-23T00:24:04.284Z,48.37
2019-03-23T00:26:31.072Z,54.47
2019-03-23T00:28:57.598Z,53.60
2019-03-23T00:31:24.265Z,51.20
2019-03-23T00:33:50.847Z,55.23
2019-03-23T00:36:17.490Z,53.57
2019-03-23T00:38:44.075Z,53.33
2019-03-23T00:41:10.659Z,57.23
2019-03-23T00:43:37.324Z,57.17
2019-03-23T00:46:03.918Z,52.07
2019-03-23T00:48:30.673Z,57.80
2019-03-23T00:50:57.247Z,61.37
2019-03-23T00:53:23.820Z,67.93
2019-03-23T00:55:50.453Z,64.30
2019-03-23T00:58:17.012Z,64.87
2019-03-23T01:00:43.658Z,69.03
2019-03-23T01:03:10.313Z,54.43
2019-03-23T01:05:36.925Z,58.20
2019-03-23T01:08:03.769Z,55.17
2019-03-23T01:10:31.829Z,59.43
2019-03-23T01:12:59.777Z,67.27
2019-03-23T01:15:26.580Z,60.27
2019-03-23T01:17:53.218Z,70.27
2019-03-23T01:20:21.611Z,66.17
2019-03-23T01:22:48.184Z,58.10
2019-03-23T01:25:14.846Z,63.67
2019-03-23T01:27:41.421Z,62.60
2019-03-23T01:30:12.712Z,64.00
2019-03-23T01:32:39.520Z,53.93
2019-03-23T01:35:07.613Z,70.40
2019-03-23T01:37:34.328Z,65.57
2019-03-23T01:40:01.202Z,61.77
2019-03-23T01:42:27.965Z,66.57
2019-03-23T01:44:54.635Z,69.77
2019-03-23T01:47:21.285Z,62.13
2019-03-23T01:49:47.945Z,62.87
2019-03-23T01:52:15.609Z,64.90
2019-03-23T01:54:42.457Z,66.90
2019-03-23T01:57:09.140Z,54.90
2019-03-23T01:59:35.716Z,59.23
2019-03-23T02:02:02.447Z,59.70
2019-03-23T02:04:29.226Z,60.23
2019-03-23T02:06:55.802Z,58.37
2019-03-23T02:09:22.718Z,60.23
2019-03-23T02:11:49.312Z,62.47
2019-03-23T02:14:15.968Z,63.10
2019-03-23T02:16:42.721Z,56.70
2019-03-23T02:19:09.521Z,68.70
2019-03-23T02:21:36.214Z,70.03
2019-03-23T02:24:02.976Z,69.27
2019-03-23T02:26:30.803Z,60.83
2019-03-23T02:28:57.672Z,74.57
2019-03-23T02:31:24.490Z,65.50
2019-03-23T02:33:51.165Z,65.93
2019-03-23T02:36:17.929Z,57.00
2019-03-23T02:38:50.130Z,67.33
2019-03-23T02:41:51.745Z,66.63
2019-03-23T02:44:18.562Z,74.60
2019-03-23T02:46:45.131Z,66.23
2019-03-23T02:49:11.789Z,63.47
2019-03-23T02:51:39.797Z,70.80
2019-03-23T02:54:07.005Z,64.60
2019-03-23T02:56:33.624Z,69.40
2019-03-23T02:59:00.237Z,66.40
2019-03-23T03:01:26.933Z,63.67
2019-03-23T03:03:53.524Z,63.80
2019-03-23T03:06:20.281Z,60.97
2019-03-23T03:08:46.883Z,57.90
2019-03-23T03:11:13.512Z,63.17
2019-03-23T03:13:40.278Z,59.50
2019-03-23T03:16:06.866Z,64.03
2019-03-23T03:18:33.526Z,64.23
2019-03-23T03:21:00.193Z,66.63
2019-03-23T03:23:26.760Z,74.50
2019-03-23T03:25:53.357Z,72.07
2019-03-23T03:28:20.026Z,75.93
2019-03-23T03:30:46.835Z,84.67
2019-03-23T03:33:13.446Z,74.80
2019-03-23T03:35:40.059Z,85.33
2019-03-23T03:38:06.633Z,82.23
2019-03-23T03:40:33.391Z,79.63
2019-03-23T03:43:00.181Z,78.17
2019-03-23T03:45:27.184Z,77.50
2019-03-23T03:47:54.147Z,81.73
2019-03-23T03:50:20.941Z,73.10
2019-03-23T03:52:47.703Z,74.60
2019-03-23T03:55:14.294Z,72.67
2019-03-23T03:57:40.864Z,76.30
2019-03-23T04:00:08.948Z,78.90
2019-03-23T04:02:36.613Z,75.80
2019-03-23T04:05:05.384Z,75.20
2019-03-23T04:07:32.020Z,65.90
2019-03-23T04:09:58.616Z,73.57
2019-03-23T04:12:25.198Z,71.60
2019-03-23T04:14:51.809Z,79.07
2019-03-23T04:17:18.752Z,73.27
2019-03-23T04:19:47.250Z,74.80
2019-03-23T04:22:13.868Z,75.47
2019-03-23T04:24:40.519Z,79.50
2019-03-23T04:27:07.221Z,77.67
2019-03-23T04:29:33.789Z,76.73
2019-03-23T04:32:00.578Z,80.90
2019-03-23T04:34:27.380Z,80.10
2019-03-23T04:36:57.319Z,73.33
2019-03-23T04:39:23.976Z,74.43
2019-03-23T04:41:50.643Z,72.70
2019-03-23T04:44:17.412Z,70.30
2019-03-23T04:46:44.140Z,90.70
2019-03-23T04:49:10.808Z,80.97
2019-03-23T04:51:37.548Z,78.43
2019-03-23T04:54:04.266Z,79.67
2019-03-23T04:56:30.856Z,74.90
2019-03-23T04:58:57.592Z,78.30
2019-03-23T05:01:24.183Z,84.07
2019-03-23T05:03:50.862Z,86.90
2019-03-23T05:06:17.467Z,76.27
2019-03-23T05:08:44.061Z,81.13
2019-03-23T05:11:10.636Z,77.43
2019-03-23T05:13:37.219Z,69.60
2019-03-23T05:16:03.969Z,78.40
2019-03-23T05:18:30.632Z,73.07
2019-03-23T05:20:57.300Z,74.80
2019-03-23T05:23:23.950Z,74.27
2019-03-23T05:25:50.565Z,76.90
2019-03-23T05:28:17.210Z,81.60
2019-03-23T05:30:44.857Z,70.27
2019-03-23T05:33:13.375Z,77.30
2019-03-23T05:35:39.939Z,79.70
2019-03-23T05:38:06.501Z,78.70
2019-03-23T05:40:33.122Z,79.63
2019-03-23T05:42:59.658Z,72.97
2019-03-23T05:45:26.534Z,69.33
2019-03-23T05:47:53.145Z,79.57
2019-03-23T05:50:19.695Z,73.33
2019-03-23T05:52:46.383Z,77.00
2019-03-23T05:55:13.104Z,77.30
2019-03-23T05:57:39.703Z,75.83
2019-03-23T06:00:10.688Z,73.03
2019-03-23T06:02:37.403Z,68.60
2019-03-23T06:05:05.437Z,68.80
2019-03-23T06:07:32.127Z,69.53
2019-03-23T06:09:58.869Z,69.00
2019-03-23T06:12:25.458Z,69.17
2019-03-23T06:14:52.040Z,72.40
2019-03-23T06:17:18.841Z,70.47
2019-03-23T06:19:45.429Z,64.60
2019-03-23T06:22:13.318Z,65.57
2019-03-23T06:24:39.943Z,67.57
2019-03-23T06:27:06.555Z,76.03
2019-03-23T06:29:33.101Z,63.47
2019-03-23T06:32:02.049Z,59.43
2019-03-23T06:34:28.746Z,56.07
2019-03-23T06:36:55.307Z,56.67
2019-03-23T06:39:21.940Z,59.57
2019-03-23T06:41:48.547Z,53.23
2019-03-23T06:44:15.297Z,58.47
2019-03-23T06:46:41.915Z,43.67
2019-03-23T06:49:08.534Z,47.73
2019-03-23T06:51:35.168Z,50.30
2019-03-23T06:54:01.818Z,44.83
2019-03-23T06:56:28.719Z,40.10
2019-03-23T06:58:55.563Z,38.83
2019-03-23T07:01:22.546Z,28.90
2019-03-23T07:03:49.215Z,31.07
2019-03-23T07:06:15.767Z,30.53
2019-03-23T07:08:42.339Z,27.10
2019-03-23T07:11:08.961Z,21.87
2019-03-23T07:13:35.559Z,30.53
2019-03-23T07:16:02.722Z,17.57
2019-03-23T07:18:29.387Z,14.77
2019-03-23T07:20:56.099Z,13.83
2019-03-23T07:23:23.356Z,17.07
2019-03-23T07:25:49.908Z,18.87
2019-03-23T07:28:16.766Z,14.57
2019-03-23T07:30:43.388Z,17.87
2019-03-23T07:33:09.945Z,16.73
2019-03-23T07:35:36.579Z,27.03
2019-03-23T07:38:03.679Z,19.77
2019-03-23T07:40:31.034Z,14.80
2019-03-23T07:42:58.044Z,23.80
2019-03-23T07:45:24.866Z,23.10
2019-03-23T07:47:51.561Z,16.97
2019-03-23T07:50:18.171Z,18.43
2019-03-23T07:52:45.080Z,14.17
2019-03-23T07:55:14.110Z,15.57
2019-03-23T07:57:41.516Z,13.03
2019-03-23T08:00:13.885Z,12.07
2019-03-23T08:02:40.677Z,14.67
2019-03-23T08:05:10.637Z,16.17
2019-03-23T08:07:37.490Z,16.00
2019-03-23T08:11:00.488Z,12.03
2019-03-23T08:13:27.345Z,14.13
2019-03-23T08:15:54.175Z,11.97
2019-03-23T08:18:20.881Z,10.23
2019-03-23T08:20:47.532Z,13.80
2019-03-23T08:23:14.136Z,16.13
2019-03-23T08:25:40.783Z,12.07
2019-03-23T08:28:07.536Z,14.33
2019-03-23T08:30:34.277Z,12.50
2019-03-23T08:33:00.929Z,9.53
2019-03-23T08:35:27.751Z,12.57
2019-03-23T08:37:54.425Z,10.13
2019-03-23T08:40:21.107Z,10.60
2019-03-23T08:42:47.688Z,11.33
2019-03-23T08:45:14.802Z,9.87
2019-03-23T08:47:41.367Z,13.37
2019-03-23T08:50:08.731Z,9.97
2019-03-23T08:52:35.404Z,19.87
2019-03-23T08:55:03.153Z,9.97
2019-03-23T08:57:29.921Z,13.57
2019-03-23T08:59:56.854Z,12.57
2019-03-23T09:02:23.788Z,10.17
2019-03-23T09:04:50.364Z,10.20
2019-03-23T09:07:17.124Z,33.23
2019-03-23T09:09:43.777Z,7.03
2019-03-23T09:12:10.716Z,7.13
2019-03-23T09:14:37.388Z,7.90
2019-03-23T09:17:04.141Z,9.93
2019-03-23T09:19:30.966Z,11.63
2019-03-23T09:21:58.809Z,10.20
2019-03-23T09:24:25.433Z,11.40
2019-03-23T09:26:52.240Z,12.10
2019-03-23T09:29:19.005Z,8.13
2019-03-23T09:31:45.624Z,8.43
2019-03-23T09:34:12.363Z,10.73
2019-03-23T09:36:41.244Z,10.10
2019-03-23T09:39:07.650Z,10.17
2019-03-23T09:41:34.431Z,11.17
2019-03-23T09:44:01.311Z,9.23
2019-03-23T09:46:28.239Z,10.00
2019-03-23T09:48:55.047Z,8.73
2019-03-23T09:51:21.635Z,8.73
2019-03-23T09:53:48.442Z,9.30
2019-03-23T09:56:15.173Z,10.50
2019-03-23T09:58:41.786Z,11.67
2019-03-23T10:01:08.722Z,7.37
2019-03-23T10:03:35.351Z,9.00
2019-03-23T10:06:05.975Z,11.40
2019-03-23T10:08:34.117Z,11.70
2019-03-23T10:11:00.832Z,18.50
2019-03-23T10:13:28.591Z,13.77
2019-03-23T10:15:55.325Z,14.97
2019-03-23T10:18:22.019Z,11.60
2019-03-23T10:20:48.658Z,12.20
2019-03-23T10:23:15.284Z,12.17
2019-03-23T10:25:42.043Z,16.47
2019-03-23T10:28:08.756Z,15.07
2019-03-23T10:30:35.522Z,13.07
2019-03-23T10:33:02.093Z,12.83
2019-03-23T10:35:28.918Z,13.77
2019-03-23T10:37:55.618Z,9.67
2019-03-23T10:40:32.011Z,15.33
2019-03-23T10:42:51.348Z,10.93
2019-03-23T10:45:18.127Z,10.47
2019-03-23T10:47:45.091Z,15.60
2019-03-23T10:50:12.031Z,11.43
2019-03-23T10:52:38.715Z,14.70
2019-03-23T10:55:06.097Z,11.73
2019-03-23T10:57:32.717Z,10.20
2019-03-23T10:59:59.284Z,11.53
2019-03-23T11:02:25.970Z,14.53
2019-03-23T11:04:52.577Z,7.97
2019-03-23T11:07:19.271Z,11.63
2019-03-23T11:09:45.927Z,9.10
2019-03-23T11:12:12.657Z,9.43
2019-03-23T11:14:39.263Z,10.43
2019-03-23T11:17:05.918Z,8.00
2019-03-23T11:19:32.595Z,12.90
2019-03-23T11:21:59.179Z,10.60
2019-03-23T11:24:25.835Z,10.03
2019-03-23T11:26:53.439Z,10.83
2019-03-23T11:29:20.283Z,9.83
2019-03-23T11:31:46.921Z,9.47
2019-03-23T11:34:17.745Z,7.67
2019-03-23T11:36:42.277Z,8.47
2019-03-23T11:39:08.861Z,7.73
2019-03-23T11:41:35.603Z,10.27
2019-03-23T11:44:04.465Z,9.43
2019-03-23T11:46:31.151Z,9.50
2019-03-23T11:48:57.779Z,7.67
2019-03-23T11:51:24.497Z,9.03
2019-03-23T11:53:51.062Z,7.33
2019-03-23T11:56:17.714Z,10.03
2019-03-23T11:58:44.281Z,7.90
2019-03-23T12:01:11.054Z,9.43
2019-03-23T12:03:37.921Z,9.63
2019-03-23T12:06:04.872Z,9.67
2019-03-23T12:08:31.523Z,9.87
2019-03-23T12:11:02.790Z,11.43
2019-03-23T12:13:26.772Z,11.20
2019-03-23T12:15:53.332Z,6.97
2019-03-23T12:18:19.986Z,7.03
2019-03-23T12:20:46.647Z,9.60
2019-03-23T12:23:13.407Z,7.83
2019-03-23T12:25:39.975Z,6.90
2019-03-23T12:28:06.596Z,16.97
2019-03-23T12:30:33.349Z,8.40
2019-03-23T12:32:59.997Z,7.97
2019-03-23T12:35:26.871Z,8.53
2019-03-23T12:37:53.559Z,7.80
2019-03-23T12:40:20.113Z,10.37
2019-03-23T12:42:46.781Z,7.53
2019-03-23T12:45:16.852Z,8.93
2019-03-23T12:47:43.554Z,9.30
2019-03-23T12:50:11.034Z,9.53
2019-03-23T12:52:38.006Z,8.60
2019-03-23T12:55:09.375Z,10.43
2019-03-23T12:57:36.020Z,8.30
2019-03-23T13:00:08.460Z,9.13
2019-03-23T13:02:35.228Z,6.97
2019-03-23T13:05:04.464Z,9.63
2019-03-23T13:07:31.130Z,7.73
2019-03-23T13:09:57.727Z,6.53
2019-03-23T13:12:24.495Z,7.20
2019-03-23T13:14:51.271Z,8.17
2019-03-23T13:17:17.956Z,9.53
2019-03-23T13:19:44.530Z,6.50
2019-03-23T13:22:11.159Z,11.43
2019-03-23T13:24:37.705Z,11.27
2019-03-23T13:27:04.474Z,7.80
2019-03-23T13:29:31.062Z,8.30
2019-03-23T13:31:57.835Z,8.47
2019-03-23T13:34:24.455Z,9.63
2019-03-23T13:36:51.182Z,10.00
2019-03-23T13:39:17.755Z,11.87
2019-03-23T13:41:47.949Z,11.20
2019-03-23T13:44:16.053Z,9.63
2019-03-23T13:46:42.923Z,24.70
2019-03-23T13:49:09.491Z,10.00
2019-03-23T13:51:36.093Z,18.27
2019-03-23T13:54:02.942Z,14.00
2019-03-23T13:56:30.815Z,15.27
2019-03-23T13:58:57.490Z,10.10
2019-03-23T14:01:24.059Z,12.77
2019-03-23T14:03:50.599Z,10.03
2019-03-23T14:06:17.221Z,10.93
2019-03-23T14:08:43.909Z,9.87
2019-03-23T14:11:10.506Z,12.60
2019-03-23T14:13:37.074Z,12.20
2019-03-23T14:16:03.724Z,11.57
2019-03-23T14:18:30.347Z,18.10
2019-03-23T14:20:56.898Z,11.13
2019-03-23T14:23:23.544Z,9.13
2019-03-23T14:25:50.427Z,8.93
2019-03-23T14:28:17.025Z,9.60
2019-03-23T14:30:43.857Z,13.60
2019-03-23T14:33:10.540Z,10.00
2019-03-23T14:35:37.160Z,12.03
2019-03-23T14:38:03.875Z,12.30
2019-03-23T14:40:30.600Z,9.53
2019-03-23T14:42:57.242Z,11.83
2019-03-23T14:45:24.022Z,10.57
2019-03-23T14:47:50.607Z,10.70
2019-03-23T14:50:17.391Z,9.80
2019-03-23T14:52:44.068Z,14.27
2019-03-23T14:55:11.100Z,10.43
2019-03-23T14:57:40.471Z,10.50
2019-03-23T15:00:09.462Z,10.90
2019-03-23T15:02:37.455Z,10.50
2019-03-23T15:05:06.422Z,14.73
2019-03-23T15:07:33.032Z,17.17
2019-03-23T15:09:59.612Z,13.93
2019-03-23T15:12:26.324Z,10.27
2019-03-23T15:14:53.981Z,8.83
2019-03-23T15:17:20.560Z,12.30
2019-03-23T15:19:47.160Z,12.77
2019-03-23T15:22:13.896Z,12.00
2019-03-23T15:24:40.485Z,12.13
2019-03-23T15:27:07.071Z,18.00
2019-03-23T15:29:33.639Z,18.03
2019-03-23T15:32:00.195Z,75.50
2019-03-23T15:34:26.831Z,39.20
2019-03-23T15:36:53.470Z,19.57
2019-03-23T15:39:20.226Z,29.80
2019-03-23T15:41:46.929Z,22.40
2019-03-23T15:44:13.625Z,20.30
2019-03-23T15:46:40.227Z,23.13
2019-03-23T15:49:06.866Z,36.70
2019-03-23T15:51:33.469Z,25.80
2019-03-23T15:54:00.035Z,15.97
2019-03-23T15:56:26.753Z,18.60
2019-03-23T15:58:53.323Z,18.60
2019-03-23T16:01:19.916Z,18.90
2019-03-23T16:03:46.611Z,14.97
2019-03-23T16:06:13.307Z,19.80
2019-03-23T16:08:40.124Z,23.37
2019-03-23T16:11:06.836Z,20.87
2019-03-23T16:13:33.593Z,16.13
2019-03-23T16:16:00.183Z,28.00
2019-03-23T16:18:26.939Z,12.23
2019-03-23T16:20:53.516Z,9.63
2019-03-23T16:23:20.187Z,12.77
2019-03-23T16:25:46.760Z,12.53
2019-03-23T16:28:13.403Z,19.33
2019-03-23T16:30:40.022Z,15.70
2019-03-23T16:33:06.601Z,11.37
2019-03-23T16:35:34.287Z,11.60
2019-03-23T16:38:01.026Z,11.47
2019-03-23T16:40:27.875Z,11.47
2019-03-23T16:42:54.546Z,17.17
2019-03-23T16:45:21.506Z,19.97
2019-03-23T16:47:48.478Z,95.37
2019-03-23T16:50:15.254Z,142.73
2019-03-23T16:52:41.930Z,274.50
2019-03-23T16:55:10.123Z,502.10
2019-03-23T16:57:38.007Z,465.50
2019-03-23T17:00:10.351Z,374.97
2019-03-23T17:02:37.170Z,343.83
2019-03-23T17:05:05.118Z,309.00
2019-03-23T17:07:32.020Z,222.93
2019-03-23T17:09:58.599Z,172.10
2019-03-23T17:12:27.371Z,143.40
2019-03-23T17:14:53.973Z,130.37
2019-03-23T17:17:20.575Z,104.53
2019-03-23T17:19:47.281Z,93.67
2019-03-23T17:22:13.915Z,227.63
2019-03-23T17:24:40.488Z,222.33
2019-03-23T17:27:07.306Z,242.73
2019-03-23T17:29:33.958Z,193.87
2019-03-23T17:32:00.679Z,176.13
2019-03-23T17:34:28.772Z,153.23
2019-03-23T17:36:55.367Z,164.80
2019-03-23T17:39:23.392Z,152.47
2019-03-23T17:41:50.081Z,149.33
2019-03-23T17:44:16.939Z,157.73
2019-03-23T17:46:43.772Z,151.63
2019-03-23T17:49:10.463Z,165.93
2019-03-23T17:51:37.067Z,213.63
2019-03-23T17:54:03.853Z,273.33
2019-03-23T17:56:30.428Z,252.47
2019-03-23T17:58:57.061Z,175.40
2019-03-23T18:01:23.804Z,215.97
2019-03-23T18:03:50.792Z,317.43
2019-03-23T18:06:17.493Z,329.10
2019-03-23T18:08:44.174Z,321.93
2019-03-23T18:11:10.933Z,295.33
2019-03-23T18:13:37.917Z,254.63
2019-03-23T18:16:04.498Z,283.07
2019-03-23T18:18:31.595Z,354.27
2019-03-23T18:21:00.322Z,402.90
2019-03-23T18:23:26.989Z,370.83
2019-03-23T18:25:53.792Z,264.77
2019-03-23T18:28:20.574Z,196.50
2019-03-23T18:30:48.494Z,142.47
2019-03-23T18:33:15.171Z,108.17
2019-03-23T18:35:42.078Z,85.23
2019-03-23T18:38:08.946Z,83.23
2019-03-23T18:40:35.964Z,89.80
2019-03-23T18:43:05.506Z,81.70
2019-03-23T18:45:32.517Z,77.43
2019-03-23T18:47:59.099Z,94.63
2019-03-23T18:50:26.584Z,144.67
2019-03-23T18:52:53.282Z,241.50
2019-03-23T18:55:20.109Z,247.67
2019-03-23T18:57:46.827Z,216.87
2019-03-23T19:00:19.170Z,211.67
2019-03-23T19:02:45.932Z,256.53
2019-03-23T19:05:13.649Z,519.23
2019-03-23T19:07:43.910Z,538.83
2019-03-23T19:10:10.860Z,601.10
2019-03-23T19:12:37.558Z,569.80
2019-03-23T19:15:05.784Z,740.43
2019-03-23T19:17:32.354Z,688.80
2019-03-23T19:19:59.124Z,685.87
2019-03-23T19:22:25.732Z,703.30
2019-03-23T19:24:52.583Z,676.57
2019-03-23T19:27:19.203Z,619.53
2019-03-23T19:29:45.801Z,584.20
2019-03-23T19:32:12.704Z,573.80
2019-03-23T19:34:39.371Z,426.40
2019-03-23T19:37:06.168Z,382.83
2019-03-23T19:39:32.850Z,312.60
2019-03-23T19:41:59.527Z,234.37
2019-03-23T19:44:26.168Z,133.07
2019-03-23T19:46:52.924Z,136.80
2019-03-23T19:49:20.646Z,137.97
2019-03-23T19:51:47.408Z,122.13
2019-03-23T19:54:14.061Z,125.47
2019-03-23T19:56:46.937Z,128.60
2019-03-23T19:59:13.693Z,123.70
2019-03-23T20:01:40.255Z,115.17
2019-03-23T20:04:07.052Z,130.73
2019-03-23T20:06:36.743Z,133.03
2019-03-23T20:09:09.155Z,130.73
2019-03-23T20:11:35.806Z,135.53
2019-03-23T20:14:03.288Z,150.87
2019-03-23T20:16:29.992Z,131.80
2019-03-23T20:18:56.594Z,140.17
2019-03-23T20:21:23.429Z,145.93
2019-03-23T20:23:51.321Z,159.57
2019-03-23T20:26:18.160Z,179.20
2019-03-23T20:28:44.995Z,172.53
2019-03-23T20:31:12.015Z,219.30
2019-03-23T20:33:38.807Z,205.27
2019-03-23T20:36:05.373Z,209.80
2019-03-23T20:38:32.025Z,169.47
2019-03-23T20:40:58.764Z,168.20
2019-03-23T20:43:25.531Z,176.53
2019-03-23T20:45:52.487Z,180.20
2019-03-23T20:48:19.280Z,150.03
2019-03-23T20:50:47.206Z,169.30
2019-03-23T20:53:14.994Z,151.13
2019-03-23T20:55:42.991Z,167.57
2019-03-23T20:58:09.591Z,155.23
2019-03-23T21:00:36.187Z,160.97
2019-03-23T21:03:03.530Z,149.37
2019-03-23T21:05:34.221Z,151.33
2019-03-23T21:08:00.864Z,142.47
2019-03-23T21:10:27.819Z,145.00
2019-03-23T21:12:54.486Z,168.20
2019-03-23T21:15:26.500Z,206.80
2019-03-23T21:17:53.249Z,180.70
2019-03-23T21:20:20.041Z,194.43
2019-03-23T21:22:46.885Z,209.80
2019-03-23T21:25:14.405Z,227.97
2019-03-23T21:27:41.238Z,210.33
2019-03-23T21:30:16.629Z,209.33
2019-03-23T21:32:43.372Z,299.20
2019-03-23T21:35:10.889Z,434.23
2019-03-23T21:37:41.165Z,289.73
2019-03-23T21:40:08.421Z,311.60
2019-03-23T21:42:35.251Z,270.13
2019-03-23T21:45:05.422Z,267.60
2019-03-23T21:47:32.293Z,237.43
2019-03-23T21:49:58.966Z,247.07
2019-03-23T21:52:25.874Z,233.80
2019-03-23T21:54:53.007Z,227.17
2019-03-23T21:57:19.727Z,226.30
2019-03-23T21:59:46.297Z,217.87
2019-03-23T22:02:13.243Z,223.00
2019-03-23T22:04:39.881Z,210.93
2019-03-23T22:07:06.583Z,219.77
2019-03-23T22:09:33.247Z,206.40
2019-03-23T22:11:59.904Z,219.73
2019-03-23T22:14:26.438Z,205.63
2019-03-23T22:16:53.057Z,231.90
2019-03-23T22:19:19.728Z,220.80
2019-03-23T22:21:46.350Z,231.20
2019-03-23T22:24:14.029Z,223.57
2019-03-23T22:26:40.580Z,191.50
2019-03-23T22:29:07.171Z,171.27
2019-03-23T22:31:33.720Z,169.90
2019-03-23T22:34:00.326Z,168.37
2019-03-23T22:36:27.035Z,146.07
2019-03-23T22:38:53.954Z,151.23
2019-03-23T22:41:20.552Z,137.30
2019-03-23T22:43:47.275Z,147.33
2019-03-23T22:46:13.867Z,147.80
2019-03-23T22:48:40.754Z,139.43
2019-03-23T22:51:07.340Z,122.07
2019-03-23T22:53:34.026Z,127.03
2019-03-23T22:56:02.747Z,109.57
2019-03-23T22:58:29.967Z,105.93
2019-03-23T23:00:57.179Z,86.60
2019-03-23T23:03:24.044Z,76.03
2019-03-23T23:05:50.758Z,85.43
2019-03-23T23:08:17.573Z,76.07
2019-03-23T23:10:44.460Z,69.97
2019-03-23T23:13:11.371Z,68.50
2019-03-23T23:15:38.135Z,64.57
2019-03-23T23:18:05.018Z,58.87
2019-03-23T23:20:31.715Z,61.03
2019-03-23T23:22:58.413Z,61.83
2019-03-23T23:25:25.124Z,49.57
2019-03-23T23:28:48.171Z,48.77
2019-03-23T23:31:14.870Z,43.77
2019-03-23T23:33:41.503Z,39.60
2019-03-23T23:36:08.173Z,38.67
2019-03-23T23:38:34.739Z,37.83
2019-03-23T23:41:01.459Z,34.67
2019-03-23T23:43:28.361Z,34.77
2019-03-23T23:45:55.039Z,30.37
2019-03-23T23:48:21.666Z,32.17
2019-03-23T23:50:48.413Z,34.83
2019-03-23T23:53:14.980Z,31.17
2019-03-23T23:55:41.552Z,34.00
2019-03-23T23:58:08.201Z,34.03
